createdAt,value
2019-03-20T00:01:12.054Z,55.80
2019-03-20T00:02:15.125Z,54.60
2019-03-20T00:03:17.436Z,53.80
2019-03-20T00:04:21.364Z,54.40
2019-03-20T00:05:23.336Z,55.00
2019-03-20T00:06:25.599Z,51.80
2019-03-20T00:07:27.548Z,57.00
2019-03-20T00:08:29.642Z,50.20
2019-03-20T00:09:31.437Z,53.80
2019-03-20T00:10:34.025Z,60.20
2019-03-20T00:11:36.265Z,59.60
2019-03-20T00:12:38.252Z,57.00
2019-03-20T00:13:40.483Z,52.40
2019-03-20T00:14:42.538Z,48.20
2019-03-20T00:15:44.653Z,51.20
2019-03-20T00:16:46.985Z,52.00
2019-03-20T00:17:49.403Z,53.80
2019-03-20T00:18:51.735Z,49.00
2019-03-20T00:19:54.914Z,53.80
2019-03-20T00:20:57.097Z,50.20
2019-03-20T00:21:59.137Z,55.00
2019-03-20T00:23:01.510Z,48.20
2019-03-20T00:24:03.827Z,50.60
2019-03-20T00:25:07.991Z,53.00
2019-03-20T00:26:10.159Z,54.00
2019-03-20T00:27:12.261Z,44.60
2019-03-20T00:28:14.209Z,51.60
2019-03-20T00:29:16.401Z,44.40
2019-03-20T00:30:19.410Z,47.20
2019-03-20T00:31:21.424Z,49.80
2019-03-20T00:32:23.743Z,53.60
2019-03-20T00:33:25.495Z,51.20
2019-03-20T00:34:27.528Z,50.20
2019-03-20T00:35:29.588Z,49.00
2019-03-20T00:36:32.528Z,52.60
2019-03-20T00:37:34.936Z,49.80
2019-03-20T00:38:37.332Z,52.40
2019-03-20T00:39:39.474Z,53.80
2019-03-20T00:40:41.808Z,51.40
2019-03-20T00:41:43.964Z,53.00
2019-03-20T00:42:46.301Z,53.00
2019-03-20T00:43:48.381Z,51.80
2019-03-20T00:44:50.497Z,53.00
2019-03-20T00:45:52.610Z,49.80
2019-03-20T00:46:54.567Z,51.60
2019-03-20T00:47:56.709Z,51.60
2019-03-20T00:48:58.660Z,53.00
2019-03-20T00:50:00.630Z,54.80
2019-03-20T00:51:03.190Z,52.00
2019-03-20T00:52:04.946Z,57.60
2019-03-20T00:53:06.927Z,57.80
2019-03-20T00:54:08.725Z,59.40
2019-03-20T00:55:15.191Z,63.40
2019-03-20T00:56:17.319Z,54.20
2019-03-20T00:57:19.568Z,54.80
2019-03-20T00:58:22.691Z,53.00
2019-03-20T00:59:24.880Z,52.00
2019-03-20T01:00:27.334Z,56.80
2019-03-20T01:01:29.022Z,56.20
2019-03-20T01:02:31.020Z,60.80
2019-03-20T01:03:33.103Z,53.80
2019-03-20T01:04:35.257Z,48.00
2019-03-20T01:05:38.047Z,60.60
2019-03-20T01:06:39.999Z,59.20
2019-03-20T01:07:43.119Z,55.00
2019-03-20T01:08:45.088Z,52.20
2019-03-20T01:09:47.069Z,58.60
2019-03-20T01:10:49.271Z,43.80
2019-03-20T01:11:51.443Z,52.80
2019-03-20T01:12:53.695Z,48.20
2019-03-20T01:13:55.692Z,50.60
2019-03-20T01:14:57.685Z,56.40
2019-03-20T01:15:59.720Z,56.40
2019-03-20T01:17:01.815Z,51.80
2019-03-20T01:18:04.148Z,52.40
2019-03-20T01:19:06.219Z,50.40
2019-03-20T01:20:18.529Z,55.80
2019-03-20T01:21:21.634Z,59.40
2019-03-20T01:22:23.639Z,49.60
2019-03-20T01:23:26.818Z,58.00
2019-03-20T01:24:28.866Z,51.40
2019-03-20T01:25:31.070Z,57.00
2019-03-20T01:26:33.460Z,56.80
2019-03-20T01:27:35.623Z,58.60
2019-03-20T01:28:37.616Z,67.00
2019-03-20T01:29:39.577Z,57.80
2019-03-20T01:30:41.474Z,60.00
2019-03-20T01:31:43.554Z,62.00
2019-03-20T01:32:45.714Z,58.20
2019-03-20T01:33:51.394Z,56.00
2019-03-20T01:34:53.829Z,58.40
2019-03-20T01:35:56.013Z,60.40
2019-03-20T01:36:58.762Z,58.80
2019-03-20T01:38:01.079Z,53.60
2019-03-20T01:39:05.067Z,56.60
2019-03-20T01:40:07.021Z,50.20
2019-03-20T01:41:09.088Z,49.00
2019-03-20T01:42:11.218Z,45.20
2019-03-20T01:43:13.309Z,52.60
2019-03-20T01:44:15.311Z,48.60
2019-03-20T01:45:17.430Z,47.20
2019-03-20T01:46:19.463Z,48.80
2019-03-20T01:47:21.580Z,54.80
2019-03-20T01:48:23.346Z,59.20
2019-03-20T01:49:25.288Z,51.40
2019-03-20T01:50:27.581Z,52.40
2019-03-20T01:51:29.756Z,49.60
2019-03-20T01:52:31.863Z,59.00
2019-03-20T01:53:33.995Z,54.60
2019-03-20T01:54:35.693Z,64.40
2019-03-20T01:55:37.869Z,61.40
2019-03-20T01:56:39.815Z,63.40
2019-03-20T01:57:41.816Z,56.60
2019-03-20T01:58:43.772Z,46.40
2019-03-20T01:59:45.761Z,60.60
2019-03-20T02:00:47.827Z,53.20
2019-03-20T02:01:49.944Z,56.60
2019-03-20T02:02:52.019Z,51.20
2019-03-20T02:03:53.896Z,53.80
2019-03-20T02:04:55.990Z,62.00
2019-03-20T02:05:58.292Z,57.40
2019-03-20T02:07:00.090Z,57.80
2019-03-20T02:08:02.230Z,57.40
2019-03-20T02:09:05.557Z,45.60
2019-03-20T02:10:12.020Z,41.00
2019-03-20T02:11:14.166Z,49.80
2019-03-20T02:12:16.168Z,48.00
2019-03-20T02:13:18.026Z,48.20
2019-03-20T02:14:20.726Z,49.60
2019-03-20T02:15:22.656Z,54.60
2019-03-20T02:16:24.876Z,55.00
2019-03-20T02:17:27.104Z,54.20
2019-03-20T02:18:28.866Z,55.20
2019-03-20T02:19:30.520Z,48.00
2019-03-20T02:20:32.590Z,53.80
2019-03-20T02:21:34.730Z,55.20
2019-03-20T02:22:36.396Z,54.60
2019-03-20T02:23:38.465Z,58.20
2019-03-20T02:24:40.154Z,58.20
2019-03-20T02:25:42.270Z,49.20
2019-03-20T02:26:44.395Z,48.40
2019-03-20T02:27:46.416Z,46.00
2019-03-20T02:28:49.678Z,47.60
2019-03-20T02:29:52.126Z,56.40
2019-03-20T02:30:53.794Z,56.00
2019-03-20T02:31:55.916Z,58.80
2019-03-20T02:32:57.894Z,51.20
2019-03-20T02:33:59.584Z,46.60
2019-03-20T02:35:02.023Z,44.60
2019-03-20T02:36:05.307Z,56.60
2019-03-20T02:37:07.232Z,60.00
2019-03-20T02:38:09.191Z,53.80
2019-03-20T02:39:12.144Z,50.00
2019-03-20T02:40:14.852Z,46.60
2019-03-20T02:41:17.082Z,50.00
2019-03-20T02:42:19.277Z,48.40
2019-03-20T02:43:21.202Z,54.00
2019-03-20T02:44:23.403Z,55.40
2019-03-20T02:45:25.389Z,48.40
2019-03-20T02:46:27.332Z,46.00
2019-03-20T02:47:29.519Z,57.60
2019-03-20T02:48:31.186Z,44.80
2019-03-20T02:49:33.378Z,46.20
2019-03-20T02:50:35.524Z,47.80
2019-03-20T02:51:37.814Z,47.80
2019-03-20T02:52:39.781Z,46.00
2019-03-20T02:53:42.351Z,50.00
2019-03-20T02:54:44.202Z,50.60
2019-03-20T02:55:46.242Z,41.20
2019-03-20T02:56:48.268Z,48.00
2019-03-20T02:57:50.287Z,49.20
2019-03-20T02:58:52.403Z,61.60
2019-03-20T02:59:54.780Z,48.20
2019-03-20T03:00:56.916Z,49.60
2019-03-20T03:01:59.072Z,46.00
2019-03-20T03:03:03.084Z,42.40
2019-03-20T03:04:05.023Z,46.80
2019-03-20T03:05:08.621Z,51.40
2019-03-20T03:06:10.780Z,53.40
2019-03-20T03:07:12.647Z,49.40
2019-03-20T03:08:14.645Z,43.60
2019-03-20T03:09:16.418Z,55.20
2019-03-20T03:10:18.645Z,52.20
2019-03-20T03:11:21.916Z,50.80
2019-03-20T03:12:24.117Z,59.80
2019-03-20T03:13:26.230Z,48.80
2019-03-20T03:14:28.352Z,53.80
2019-03-20T03:15:30.491Z,60.40
2019-03-20T03:16:32.762Z,52.40
2019-03-20T03:17:35.917Z,48.00
2019-03-20T03:18:38.096Z,58.00
2019-03-20T03:19:40.031Z,51.00
2019-03-20T03:20:42.184Z,47.60
2019-03-20T03:21:44.181Z,42.80
2019-03-20T03:22:46.159Z,61.00
2019-03-20T03:23:48.286Z,53.00
2019-03-20T03:24:49.963Z,47.80
2019-03-20T03:25:52.062Z,57.20
2019-03-20T03:26:54.123Z,47.60
2019-03-20T03:27:56.106Z,56.80
2019-03-20T03:28:58.288Z,52.00
2019-03-20T03:30:00.622Z,47.80
2019-03-20T03:31:02.656Z,47.20
2019-03-20T03:32:05.131Z,55.40
2019-03-20T03:33:07.209Z,49.40
2019-03-20T03:34:08.906Z,47.60
2019-03-20T03:35:17.058Z,41.40
2019-03-20T03:36:21.184Z,49.60
2019-03-20T03:37:19.675Z,47.40
2019-03-20T03:38:21.661Z,48.40
2019-03-20T03:39:23.379Z,45.80
2019-03-20T03:40:25.442Z,52.80
2019-03-20T03:41:27.460Z,56.40
2019-03-20T03:42:29.435Z,47.00
2019-03-20T03:43:32.490Z,51.80
2019-03-20T03:44:34.741Z,58.40
2019-03-20T03:45:36.637Z,44.20
2019-03-20T03:46:38.633Z,49.80
2019-03-20T03:47:40.893Z,45.00
2019-03-20T03:48:42.903Z,51.00
2019-03-20T03:49:44.614Z,46.80
2019-03-20T03:50:48.389Z,50.60
2019-03-20T03:51:50.520Z,53.40
2019-03-20T03:52:52.567Z,49.60
2019-03-20T03:53:54.844Z,45.60
2019-03-20T03:54:56.649Z,46.60
2019-03-20T03:55:58.781Z,55.60
2019-03-20T03:57:01.095Z,56.00
2019-03-20T03:58:03.103Z,43.80
2019-03-20T03:59:05.953Z,56.40
2019-03-20T04:00:15.071Z,49.20
2019-03-20T04:01:17.370Z,51.00
2019-03-20T04:02:19.599Z,55.20
2019-03-20T04:03:22.124Z,57.00
2019-03-20T04:04:24.992Z,49.00
2019-03-20T04:05:27.162Z,55.40
2019-03-20T04:06:35.436Z,64.00
2019-03-20T04:07:33.204Z,79.80
2019-03-20T04:08:35.284Z,72.20
2019-03-20T04:09:37.673Z,65.40
2019-03-20T04:10:39.641Z,70.00
2019-03-20T04:11:41.707Z,75.80
2019-03-20T04:12:43.987Z,67.40
2019-03-20T04:13:46.250Z,60.20
2019-03-20T04:14:48.227Z,53.00
2019-03-20T04:15:50.015Z,64.60
2019-03-20T04:16:51.997Z,64.20
2019-03-20T04:17:53.984Z,65.20
2019-03-20T04:18:55.753Z,57.60
2019-03-20T04:19:57.801Z,61.80
2019-03-20T04:20:59.909Z,58.00
2019-03-20T04:22:01.803Z,60.20
2019-03-20T04:23:03.757Z,62.20
2019-03-20T04:24:05.651Z,63.80
2019-03-20T04:25:10.667Z,69.40
2019-03-20T04:26:12.789Z,65.40
2019-03-20T04:27:15.043Z,63.60
2019-03-20T04:28:17.021Z,66.80
2019-03-20T04:29:19.264Z,66.20
2019-03-20T04:30:21.277Z,65.00
2019-03-20T04:31:23.515Z,65.00
2019-03-20T04:32:25.552Z,61.40
2019-03-20T04:33:28.310Z,64.60
2019-03-20T04:34:30.039Z,58.80
2019-03-20T04:35:32.182Z,60.00
2019-03-20T04:36:46.860Z,60.80
2019-03-20T04:37:38.928Z,58.00
2019-03-20T04:38:40.910Z,51.00
2019-03-20T04:39:42.575Z,56.40
2019-03-20T04:40:45.785Z,55.20
2019-03-20T04:41:47.987Z,53.40
2019-03-20T04:42:50.003Z,49.40
2019-03-20T04:43:52.135Z,54.40
2019-03-20T04:44:54.227Z,49.20
2019-03-20T04:45:55.891Z,61.60
2019-03-20T04:46:57.907Z,48.20
2019-03-20T04:48:00.001Z,61.80
2019-03-20T04:49:01.685Z,58.80
2019-03-20T04:50:08.334Z,60.20
2019-03-20T04:51:10.522Z,54.00
2019-03-20T04:52:12.295Z,64.80
2019-03-20T04:53:14.271Z,63.00
2019-03-20T04:54:15.911Z,61.00
2019-03-20T04:55:18.181Z,61.80
2019-03-20T04:56:20.192Z,60.00
2019-03-20T04:57:22.359Z,60.00
2019-03-20T04:58:24.608Z,62.40
2019-03-20T04:59:27.737Z,64.80
2019-03-20T05:00:29.726Z,62.80
2019-03-20T05:01:32.051Z,59.20
2019-03-20T05:02:34.240Z,51.60
2019-03-20T05:03:36.444Z,72.00
2019-03-20T05:04:38.443Z,70.80
2019-03-20T05:05:40.508Z,97.00
2019-03-20T05:06:42.480Z,86.20
2019-03-20T05:07:44.554Z,75.80
2019-03-20T05:08:46.768Z,77.80
2019-03-20T05:09:48.472Z,80.20
2019-03-20T05:10:50.584Z,79.60
2019-03-20T05:11:52.610Z,82.20
2019-03-20T05:12:54.300Z,86.00
2019-03-20T05:13:56.390Z,103.60
2019-03-20T05:14:58.524Z,101.20
2019-03-20T05:16:00.218Z,98.40
2019-03-20T05:17:02.473Z,115.40
2019-03-20T05:18:05.757Z,124.60
2019-03-20T05:19:08.054Z,99.60
2019-03-20T05:20:16.137Z,76.20
2019-03-20T05:21:18.137Z,72.60
2019-03-20T05:22:20.172Z,81.40
2019-03-20T05:23:22.293Z,79.80
2019-03-20T05:24:24.373Z,79.60
2019-03-20T05:25:26.335Z,79.80
2019-03-20T05:26:28.323Z,91.60
2019-03-20T05:27:30.373Z,81.00
2019-03-20T05:28:32.497Z,82.40
2019-03-20T05:29:34.647Z,81.80
2019-03-20T05:30:36.331Z,81.60
2019-03-20T05:31:38.681Z,81.60
2019-03-20T05:32:40.955Z,85.80
2019-03-20T05:33:42.947Z,86.20
2019-03-20T05:34:45.029Z,85.60
2019-03-20T05:35:47.135Z,84.20
2019-03-20T05:36:49.120Z,98.40
2019-03-20T05:37:51.220Z,159.00
2019-03-20T05:38:53.538Z,135.60
2019-03-20T05:39:55.200Z,92.60
2019-03-20T05:40:56.948Z,108.60
2019-03-20T05:41:59.129Z,117.40
2019-03-20T05:43:01.142Z,118.40
2019-03-20T05:44:03.439Z,80.80
2019-03-20T05:45:11.914Z,82.80
2019-03-20T05:46:13.600Z,83.20
2019-03-20T05:47:15.822Z,79.40
2019-03-20T05:48:17.872Z,81.60
2019-03-20T05:49:19.857Z,74.80
2019-03-20T05:50:24.071Z,74.60
2019-03-20T05:51:26.142Z,73.80
2019-03-20T05:52:28.320Z,77.00
2019-03-20T05:53:30.341Z,78.40
2019-03-20T05:54:32.220Z,81.00
2019-03-20T05:55:34.329Z,79.00
2019-03-20T05:56:36.274Z,75.60
2019-03-20T05:57:39.893Z,75.80
2019-03-20T05:58:41.902Z,79.20
2019-03-20T05:59:43.929Z,74.00
2019-03-20T06:00:46.072Z,73.20
2019-03-20T06:01:48.206Z,74.20
2019-03-20T06:02:50.364Z,74.60
2019-03-20T06:03:52.037Z,79.00
2019-03-20T06:04:54.128Z,77.00
2019-03-20T06:05:56.375Z,75.60
2019-03-20T06:06:58.106Z,74.40
2019-03-20T06:08:00.357Z,68.80
2019-03-20T06:09:05.801Z,65.20
2019-03-20T06:10:14.454Z,73.20
2019-03-20T06:11:16.596Z,69.40
2019-03-20T06:12:18.675Z,68.60
2019-03-20T06:13:22.992Z,70.00
2019-03-20T06:14:25.160Z,70.20
2019-03-20T06:15:27.332Z,69.40
2019-03-20T06:16:29.298Z,68.00
2019-03-20T06:17:31.417Z,72.40
2019-03-20T06:18:33.939Z,67.40
2019-03-20T06:19:38.227Z,64.60
2019-03-20T06:20:41.515Z,70.20
2019-03-20T06:21:43.185Z,69.60
2019-03-20T06:22:45.450Z,67.60
2019-03-20T06:23:47.545Z,63.00
2019-03-20T06:24:49.251Z,64.80
2019-03-20T06:25:51.712Z,68.20
2019-03-20T06:26:54.206Z,63.20
2019-03-20T06:27:56.357Z,65.40
2019-03-20T06:28:58.445Z,64.60
2019-03-20T06:30:02.730Z,66.60
2019-03-20T06:31:04.693Z,64.40
2019-03-20T06:32:06.946Z,64.80
2019-03-20T06:33:08.952Z,63.40
2019-03-20T06:34:11.019Z,63.00
2019-03-20T06:35:13.348Z,63.40
2019-03-20T06:36:16.457Z,67.40
2019-03-20T06:37:18.569Z,63.20
2019-03-20T06:38:20.672Z,63.00
2019-03-20T06:39:22.847Z,63.40
2019-03-20T06:40:24.552Z,61.20
2019-03-20T06:41:27.030Z,63.60
2019-03-20T06:42:29.030Z,61.80
2019-03-20T06:43:31.072Z,62.40
2019-03-20T06:44:33.170Z,64.00
2019-03-20T06:45:35.010Z,61.00
2019-03-20T06:46:37.144Z,59.60
2019-03-20T06:47:41.339Z,58.20
2019-03-20T06:48:43.212Z,58.20
2019-03-20T06:49:46.412Z,61.00
2019-03-20T06:50:48.472Z,64.20
2019-03-20T06:51:51.602Z,59.60
2019-03-20T06:52:53.679Z,54.80
2019-03-20T06:53:55.830Z,60.00
2019-03-20T06:54:57.934Z,55.60
2019-03-20T06:55:59.977Z,57.80
2019-03-20T06:57:02.716Z,63.80
2019-03-20T06:58:04.931Z,60.40
2019-03-20T06:59:29.648Z,60.00
2019-03-20T07:00:58.528Z,57.40
2019-03-20T07:02:04.829Z,60.80
2019-03-20T07:03:21.381Z,62.60
2019-03-20T07:04:44.317Z,65.40
2019-03-20T07:06:06.627Z,59.60
2019-03-20T07:07:15.385Z,63.20
2019-03-20T07:08:21.327Z,63.80
2019-03-20T07:09:47.121Z,60.00
2019-03-20T07:11:10.553Z,57.00
2019-03-20T07:12:12.547Z,61.80
2019-03-20T07:13:14.200Z,64.40
2019-03-20T07:14:16.197Z,62.20
2019-03-20T07:15:18.513Z,64.60
2019-03-20T07:16:20.673Z,63.40
2019-03-20T07:17:22.929Z,66.60
2019-03-20T07:18:27.625Z,56.60
2019-03-20T07:19:30.075Z,67.60
2019-03-20T07:20:33.825Z,63.00
2019-03-20T07:21:35.880Z,65.80
2019-03-20T07:22:41.646Z,63.40
2019-03-20T07:23:43.646Z,64.80
2019-03-20T07:24:45.564Z,64.00
2019-03-20T07:25:47.845Z,62.40
2019-03-20T07:26:49.839Z,65.20
2019-03-20T07:27:52.555Z,59.20
2019-03-20T07:28:54.545Z,60.00
2019-03-20T07:29:56.486Z,64.00
2019-03-20T07:30:58.244Z,61.20
2019-03-20T07:32:00.258Z,63.40
2019-03-20T07:33:02.402Z,63.40
2019-03-20T07:34:04.768Z,64.80
2019-03-20T07:35:06.942Z,63.40
2019-03-20T07:36:09.410Z,68.20
2019-03-20T07:37:11.406Z,68.20
2019-03-20T07:38:13.600Z,69.80
2019-03-20T07:39:15.608Z,65.40
2019-03-20T07:40:17.366Z,64.80
2019-03-20T07:41:19.392Z,70.00
2019-03-20T07:42:21.842Z,64.20
2019-03-20T07:43:23.974Z,64.00
2019-03-20T07:44:26.177Z,57.20
2019-03-20T07:45:28.068Z,59.80
2019-03-20T07:46:29.981Z,59.00
2019-03-20T07:47:32.028Z,62.40
2019-03-20T07:48:34.167Z,60.00
2019-03-20T07:49:36.310Z,59.60
2019-03-20T07:50:38.271Z,59.20
2019-03-20T07:51:40.269Z,60.20
2019-03-20T07:52:42.473Z,60.60
2019-03-20T07:53:44.674Z,59.80
2019-03-20T07:54:46.737Z,58.80
2019-03-20T07:55:49.091Z,55.40
2019-03-20T07:56:51.315Z,52.40
2019-03-20T07:57:53.594Z,54.60
2019-03-20T07:58:56.755Z,58.20
2019-03-20T07:59:58.879Z,53.40
2019-03-20T08:01:00.798Z,49.60
2019-03-20T08:02:03.363Z,55.40
2019-03-20T08:03:05.667Z,50.00
2019-03-20T08:04:07.899Z,55.80
2019-03-20T08:05:10.065Z,55.20
2019-03-20T08:06:12.023Z,56.80
2019-03-20T08:07:13.992Z,46.00
2019-03-20T08:08:16.227Z,53.60
2019-03-20T08:09:18.541Z,50.00
2019-03-20T08:10:20.578Z,54.20
2019-03-20T08:11:22.697Z,49.40
2019-03-20T08:12:24.494Z,42.60
2019-03-20T08:13:26.693Z,47.80
2019-03-20T08:14:28.811Z,44.00
2019-03-20T08:15:30.764Z,50.00
2019-03-20T08:16:32.813Z,41.60
2019-03-20T08:17:34.907Z,44.20
2019-03-20T08:18:36.564Z,41.00
2019-03-20T08:19:38.528Z,38.00
2019-03-20T08:20:41.624Z,36.40
2019-03-20T08:21:43.647Z,36.80
2019-03-20T08:22:45.871Z,35.40
2019-03-20T08:23:47.856Z,32.80
2019-03-20T08:24:49.897Z,33.40
2019-03-20T08:25:52.235Z,32.00
2019-03-20T08:26:54.348Z,33.40
2019-03-20T08:27:56.397Z,29.20
2019-03-20T08:28:58.567Z,30.00
2019-03-20T08:30:01.054Z,34.80
2019-03-20T08:31:04.334Z,36.20
2019-03-20T08:32:06.166Z,33.80
2019-03-20T08:33:08.482Z,35.00
2019-03-20T08:34:10.188Z,37.60
2019-03-20T08:35:13.394Z,37.60
2019-03-20T08:36:15.765Z,32.40
2019-03-20T08:37:17.752Z,33.00
2019-03-20T08:38:20.107Z,31.00
2019-03-20T08:39:22.161Z,30.00
2019-03-20T08:40:24.095Z,26.20
2019-03-20T08:41:26.114Z,20.40
2019-03-20T08:42:28.759Z,23.40
2019-03-20T08:43:30.964Z,27.60
2019-03-20T08:44:34.059Z,28.00
2019-03-20T08:45:36.043Z,27.80
2019-03-20T08:46:37.869Z,21.80
2019-03-20T08:47:40.099Z,24.80
2019-03-20T08:48:42.053Z,25.80
2019-03-20T08:49:45.820Z,26.00
2019-03-20T08:50:48.080Z,36.80
2019-03-20T08:51:50.231Z,26.40
2019-03-20T08:52:52.622Z,22.00
2019-03-20T08:53:56.287Z,21.40
2019-03-20T08:54:58.229Z,22.20
2019-03-20T08:56:00.178Z,21.00
2019-03-20T08:57:02.561Z,20.40
2019-03-20T08:58:04.823Z,20.00
2019-03-20T08:59:07.175Z,26.40
2019-03-20T09:00:13.538Z,22.20
2019-03-20T09:01:15.302Z,19.60
2019-03-20T09:02:17.391Z,16.80
2019-03-20T09:03:19.343Z,16.40
2019-03-20T09:04:22.123Z,13.20
2019-03-20T09:05:24.252Z,17.60
2019-03-20T09:06:26.224Z,17.40
2019-03-20T09:07:28.823Z,18.80
2019-03-20T09:08:30.872Z,18.60
2019-03-20T09:09:32.847Z,14.40
2019-03-20T09:10:35.114Z,15.80
2019-03-20T09:11:37.176Z,15.80
2019-03-20T09:12:39.183Z,20.60
2019-03-20T09:13:41.411Z,17.80
2019-03-20T09:14:43.446Z,15.20
2019-03-20T09:15:45.602Z,15.20
2019-03-20T09:16:47.975Z,13.40
2019-03-20T09:17:50.468Z,12.40
2019-03-20T09:18:53.304Z,11.60
2019-03-20T09:19:55.448Z,21.00
2019-03-20T09:20:57.676Z,13.20
2019-03-20T09:22:00.510Z,13.60
2019-03-20T09:23:02.862Z,15.60
2019-03-20T09:24:05.328Z,10.80
2019-03-20T09:25:18.520Z,12.80
2019-03-20T09:26:20.702Z,16.60
2019-03-20T09:27:22.908Z,15.00
2019-03-20T09:28:24.857Z,19.20
2019-03-20T09:29:35.727Z,15.60
2019-03-20T09:30:31.333Z,12.00
2019-03-20T09:31:33.581Z,16.00
2019-03-20T09:32:35.891Z,16.00
2019-03-20T09:33:39.469Z,17.40
2019-03-20T09:34:41.708Z,17.80
2019-03-20T09:35:43.769Z,14.20
2019-03-20T09:36:45.528Z,13.60
2019-03-20T09:37:52.358Z,15.60
2019-03-20T09:38:52.769Z,15.60
2019-03-20T09:39:54.763Z,18.40
2019-03-20T09:40:56.943Z,19.20
2019-03-20T09:41:58.929Z,18.60
2019-03-20T09:43:01.245Z,17.40
2019-03-20T09:44:03.796Z,16.60
2019-03-20T09:45:10.204Z,16.00
2019-03-20T09:46:12.484Z,15.00
2019-03-20T09:47:14.711Z,15.40
2019-03-20T09:48:16.928Z,13.60
2019-03-20T09:49:18.987Z,14.20
2019-03-20T09:50:25.793Z,14.60
2019-03-20T09:51:27.943Z,13.20
2019-03-20T09:52:31.059Z,16.60
2019-03-20T09:53:33.102Z,13.80
2019-03-20T09:54:34.813Z,18.60
2019-03-20T09:55:37.917Z,21.00
2019-03-20T09:56:40.138Z,12.80
2019-03-20T09:57:42.663Z,13.80
2019-03-20T09:58:44.842Z,16.20
2019-03-20T09:59:46.789Z,15.40
2019-03-20T10:00:50.493Z,12.60
2019-03-20T10:01:52.528Z,12.00
2019-03-20T10:02:55.049Z,14.20
2019-03-20T10:03:56.778Z,13.80
2019-03-20T10:04:58.886Z,11.00
2019-03-20T10:06:01.222Z,9.40
2019-03-20T10:07:04.916Z,10.80
2019-03-20T10:08:07.154Z,11.00
2019-03-20T10:09:09.175Z,16.20
2019-03-20T10:10:23.030Z,14.40
2019-03-20T10:11:25.294Z,17.00
2019-03-20T10:12:27.376Z,15.60
2019-03-20T10:13:29.490Z,16.60
2019-03-20T10:14:31.526Z,13.20
2019-03-20T10:15:33.802Z,18.00
2019-03-20T10:16:35.941Z,14.20
2019-03-20T10:17:38.144Z,18.40
2019-03-20T10:18:40.167Z,20.00
2019-03-20T10:19:42.675Z,17.80
2019-03-20T10:20:45.280Z,22.00
2019-03-20T10:21:48.406Z,22.80
2019-03-20T10:22:50.939Z,17.00
2019-03-20T10:23:53.315Z,14.20
2019-03-20T10:24:56.032Z,19.00
2019-03-20T10:25:59.621Z,17.80
2019-03-20T10:27:01.602Z,17.60
2019-03-20T10:28:03.931Z,18.40
2019-03-20T10:29:06.129Z,18.40
2019-03-20T10:30:27.665Z,15.40
2019-03-20T10:31:29.391Z,14.20
2019-03-20T10:32:31.674Z,17.80
2019-03-20T10:33:33.861Z,16.80
2019-03-20T10:34:39.641Z,17.20
2019-03-20T10:35:49.866Z,16.20
2019-03-20T10:36:46.073Z,17.20
2019-03-20T10:37:48.651Z,17.00
2019-03-20T10:38:50.587Z,15.20
2019-03-20T10:39:52.711Z,16.80
2019-03-20T10:40:54.746Z,18.60
2019-03-20T10:41:57.018Z,15.20
2019-03-20T10:42:59.175Z,14.60
2019-03-20T10:44:01.316Z,16.60
2019-03-20T10:45:07.730Z,15.00
2019-03-20T10:46:10.561Z,16.60
2019-03-20T10:47:13.200Z,15.40
2019-03-20T10:48:15.374Z,15.60
2019-03-20T10:49:17.192Z,14.60
2019-03-20T10:50:21.577Z,14.80
2019-03-20T10:51:23.684Z,16.80
2019-03-20T10:52:26.014Z,18.60
2019-03-20T10:53:28.219Z,19.00
2019-03-20T10:54:30.367Z,14.80
2019-03-20T10:55:32.460Z,15.60
2019-03-20T10:56:34.536Z,18.40
2019-03-20T10:57:36.408Z,14.80
2019-03-20T10:58:39.551Z,18.80
2019-03-20T10:59:41.642Z,20.40
2019-03-20T11:00:43.646Z,18.00
2019-03-20T11:01:45.736Z,17.00
2019-03-20T11:02:47.907Z,22.00
2019-03-20T11:03:50.332Z,17.60
2019-03-20T11:04:52.458Z,22.20
2019-03-20T11:05:54.459Z,18.60
2019-03-20T11:06:56.568Z,15.00
2019-03-20T11:07:58.856Z,16.80
2019-03-20T11:09:01.202Z,18.00
2019-03-20T11:10:11.582Z,18.80
2019-03-20T11:11:13.988Z,20.00
2019-03-20T11:12:16.380Z,18.60
2019-03-20T11:13:18.479Z,19.40
2019-03-20T11:14:20.763Z,15.40
2019-03-20T11:15:24.835Z,19.40
2019-03-20T11:16:26.884Z,22.40
2019-03-20T11:17:29.123Z,19.80
2019-03-20T11:18:31.047Z,15.20
2019-03-20T11:19:33.222Z,15.00
2019-03-20T11:20:35.405Z,19.80
2019-03-20T11:21:37.753Z,15.00
2019-03-20T11:22:40.198Z,21.60
2019-03-20T11:23:42.562Z,12.80
2019-03-20T11:24:44.812Z,16.40
2019-03-20T11:25:46.949Z,16.00
2019-03-20T11:26:49.207Z,17.60
2019-03-20T11:27:51.436Z,16.20
2019-03-20T11:28:54.817Z,14.80
2019-03-20T11:29:56.920Z,18.20
2019-03-20T11:30:58.831Z,14.20
2019-03-20T11:32:03.102Z,15.20
2019-03-20T11:33:05.076Z,19.00
2019-03-20T11:34:06.856Z,13.40
2019-03-20T11:35:09.334Z,19.00
2019-03-20T11:36:11.499Z,13.00
2019-03-20T11:37:13.796Z,15.60
2019-03-20T11:38:16.098Z,14.80
2019-03-20T11:39:29.005Z,17.80
2019-03-20T11:40:37.332Z,17.60
2019-03-20T11:41:39.471Z,20.60
2019-03-20T11:42:42.036Z,19.40
2019-03-20T11:43:44.142Z,15.40
2019-03-20T11:44:46.200Z,14.80
2019-03-20T11:45:49.145Z,17.00
2019-03-20T11:46:51.614Z,19.00
2019-03-20T11:47:54.797Z,18.80
2019-03-20T11:48:58.738Z,14.20
2019-03-20T11:50:00.885Z,20.00
2019-03-20T11:51:03.116Z,18.40
2019-03-20T11:52:06.395Z,13.40
2019-03-20T11:53:09.217Z,13.00
2019-03-20T11:54:12.583Z,16.20
2019-03-20T11:55:15.130Z,14.40
2019-03-20T11:56:17.681Z,14.40
2019-03-20T11:57:21.709Z,15.40
2019-03-20T11:58:23.868Z,13.80
2019-03-20T11:59:26.212Z,14.00
2019-03-20T12:00:28.473Z,11.40
2019-03-20T12:01:30.534Z,13.40
2019-03-20T12:02:32.974Z,17.40
2019-03-20T12:03:35.265Z,15.80
2019-03-20T12:04:39.076Z,12.00
2019-03-20T12:05:41.273Z,15.20
2019-03-20T12:06:45.806Z,12.20
2019-03-20T12:07:48.177Z,11.60
2019-03-20T12:08:50.847Z,15.20
2019-03-20T12:09:52.746Z,14.60
2019-03-20T12:10:54.853Z,15.00
2019-03-20T12:11:57.217Z,17.20
2019-03-20T12:12:59.389Z,15.20
2019-03-20T12:14:01.646Z,9.00
2019-03-20T12:15:08.313Z,10.40
2019-03-20T12:16:10.118Z,12.40
2019-03-20T12:17:12.254Z,14.40
2019-03-20T12:18:14.590Z,14.00
2019-03-20T12:19:16.556Z,14.40
2019-03-20T12:20:20.627Z,12.00
2019-03-20T12:21:22.703Z,12.60
2019-03-20T12:22:25.047Z,12.80
2019-03-20T12:23:27.217Z,13.60
2019-03-20T12:24:29.367Z,13.80
2019-03-20T12:25:34.339Z,14.80
2019-03-20T12:26:36.609Z,13.00
2019-03-20T12:27:38.255Z,14.00
2019-03-20T12:28:40.752Z,14.60
2019-03-20T12:29:42.990Z,13.00
2019-03-20T12:30:44.731Z,13.40
2019-03-20T12:31:48.566Z,20.20
2019-03-20T12:32:51.295Z,14.40
2019-03-20T12:33:53.577Z,17.80
2019-03-20T12:34:55.686Z,15.60
2019-03-20T12:35:58.162Z,13.60
2019-03-20T12:37:00.392Z,13.60
2019-03-20T12:38:13.783Z,13.80
2019-03-20T12:39:07.758Z,15.40
2019-03-20T12:40:17.887Z,16.00
2019-03-20T12:41:19.958Z,15.60
2019-03-20T12:42:24.132Z,15.60
2019-03-20T12:43:26.260Z,16.80
2019-03-20T12:44:28.271Z,14.00
2019-03-20T12:45:33.464Z,15.60
2019-03-20T12:46:41.483Z,18.40
2019-03-20T12:47:39.666Z,21.00
2019-03-20T12:48:41.784Z,17.60
2019-03-20T12:49:43.938Z,14.20
2019-03-20T12:50:46.068Z,14.60
2019-03-20T12:51:48.264Z,13.40
2019-03-20T12:52:50.356Z,11.60
2019-03-20T12:53:52.460Z,13.20
2019-03-20T12:54:54.897Z,16.20
2019-03-20T12:55:58.168Z,14.00
2019-03-20T12:57:00.498Z,13.60
2019-03-20T12:58:03.051Z,15.40
2019-03-20T12:59:05.195Z,13.60
2019-03-20T13:00:18.093Z,13.60
2019-03-20T13:01:20.020Z,14.00
2019-03-20T13:02:22.275Z,10.40
2019-03-20T13:03:25.640Z,12.60
2019-03-20T13:04:27.609Z,16.00
2019-03-20T13:05:29.832Z,9.60
2019-03-20T13:06:32.021Z,9.00
2019-03-20T13:07:34.143Z,11.80
2019-03-20T13:08:36.633Z,22.20
2019-03-20T13:09:38.559Z,18.00
2019-03-20T13:10:40.654Z,21.80
2019-03-20T13:11:43.676Z,25.80
2019-03-20T13:12:45.561Z,21.80
2019-03-20T13:13:47.811Z,23.20
2019-03-20T13:14:50.134Z,18.00
2019-03-20T13:15:52.173Z,16.60
2019-03-20T13:16:54.261Z,17.60
2019-03-20T13:17:57.786Z,21.40
2019-03-20T13:18:59.597Z,17.00
2019-03-20T13:20:05.066Z,18.80
2019-03-20T13:21:07.387Z,22.00
2019-03-20T13:22:09.333Z,15.00
2019-03-20T13:23:28.010Z,25.20
2019-03-20T13:24:29.941Z,21.60
2019-03-20T13:25:32.489Z,17.00
2019-03-20T13:26:34.907Z,17.60
2019-03-20T13:27:38.161Z,15.40
2019-03-20T13:28:40.063Z,17.80